Etusivu
METAR-TAF:

METAR-TAF

Lentoasemat :

Tena, Ecuador

Leveyspiiri: 01-03-35S, Pituuspiiri: 77-35-00W, korkeus merenpinnasta: 376 m

Tämänhetkinen sää

Tämä raportti tehtiin 49 minuuttia sitten, kello 13.00 UTC
Tuuli 1 kn lännestä/luoteesta
Lämpötila 22°C
Kosteus 100%
Ilmanpaine 1017 hPa
Näkyvyys: 2000 m
Muutamia pilviä 300 ft:n korkeudessa
Hajanaisia pilviä 1000 ft:n korkeudessa
Pilvistä 9000 ft:n korkeudessa
heikkoa sadetta, utua

METAR: SEJD 021300Z 30001KT 2000 -RA BR FEW003 SCT010 OVC090 22/22 Q1017 RMK A3003

Aika: 08:49 (13:49 UTC)


TAF: puuttuu

Säähavainnot ja -ennusteet yli 4000 lentoasemalta (METAR- ja TAF-raportit).

Käytössä olevat sääasemat on merkitty karttaan keltaisilla ja punaisilla pisteillä.

Aseta hiiri pisteen päälle nähdäksesi sääaseman nimen.

Klikkaa sitten nähdäksesi säähavainnot ja -ennusteet.

Kartan vaihtaminen: klikkaa mustalla rastilla varustettuja vihreitä pisteitä, niin voit zoomata sisään; viivalla varustettua vihreää pistettä, niin voit zoomata ulos tai vihreitä nuolia, niin pääset viereisille kartoille.


METAR-TAF: